createdAt,value
2019-03-05T00:00:48.064Z,0.70
2019-03-05T00:03:16.715Z,0.80
2019-03-05T00:05:45.425Z,0.60
2019-03-05T00:08:14.015Z,0.80
2019-03-05T00:10:42.727Z,0.80
2019-03-05T00:13:11.453Z,0.63
2019-03-05T00:15:40.348Z,0.87
2019-03-05T00:18:08.887Z,0.80
2019-03-05T00:20:37.452Z,1.20
2019-03-05T00:23:08.249Z,1.57
2019-03-05T00:25:37.942Z,0.70
2019-03-05T00:28:21.365Z,1.13
2019-03-05T00:31:09.991Z,1.10
2019-03-05T00:33:54.951Z,0.70
2019-03-05T00:36:35.476Z,0.90
2019-03-05T00:39:10.072Z,0.90
2019-03-05T00:41:57.027Z,0.80
2019-03-05T00:45:00.820Z,1.37
2019-03-05T00:47:41.182Z,1.20
2019-03-05T00:50:35.318Z,0.90
2019-03-05T00:53:12.466Z,0.90
2019-03-05T00:56:11.214Z,0.70
2019-03-05T00:58:58.168Z,0.80
2019-03-05T01:01:38.862Z,0.80
2019-03-05T01:04:31.643Z,0.83
2019-03-05T01:07:00.338Z,0.70
2019-03-05T01:09:29.002Z,0.73
2019-03-05T01:11:57.789Z,0.70
2019-03-05T01:14:26.738Z,1.00
2019-03-05T01:16:55.365Z,0.90
2019-03-05T01:19:23.996Z,0.70
2019-03-05T01:21:52.738Z,0.70
2019-03-05T01:24:21.736Z,1.00
2019-03-05T01:26:50.396Z,0.90
2019-03-05T01:29:19.085Z,0.90
2019-03-05T01:31:52.087Z,1.27
2019-03-05T01:34:28.517Z,0.60
2019-03-05T01:37:01.847Z,1.30
2019-03-05T01:39:32.194Z,0.80
2019-03-05T01:42:00.890Z,0.90
2019-03-05T01:44:29.499Z,0.80
2019-03-05T01:46:58.058Z,0.70
2019-03-05T01:49:26.593Z,0.90
2019-03-05T01:51:55.156Z,0.70
2019-03-05T01:54:23.763Z,0.70
2019-03-05T01:56:52.486Z,0.83
2019-03-05T01:59:21.144Z,0.90
2019-03-05T02:01:49.737Z,0.97
2019-03-05T02:04:18.384Z,0.80
2019-03-05T02:06:47.037Z,0.87
2019-03-05T02:09:15.948Z,0.60
2019-03-05T02:12:03.966Z,0.70
2019-03-05T02:14:32.594Z,1.33
2019-03-05T02:17:01.337Z,0.97
2019-03-05T02:19:41.039Z,0.90
2019-03-05T02:22:18.561Z,0.70
2019-03-05T02:24:59.329Z,0.70
2019-03-05T02:27:51.522Z,0.57
2019-03-05T02:30:44.094Z,0.90
2019-03-05T02:33:39.830Z,0.70
2019-03-05T02:36:19.977Z,0.90
2019-03-05T02:39:09.747Z,0.70
2019-03-05T02:41:41.330Z,0.90
2019-03-05T02:44:24.890Z,0.90
2019-03-05T02:47:12.922Z,0.80
2019-03-05T02:50:13.074Z,0.87
2019-03-05T02:53:03.915Z,1.07
2019-03-05T02:55:56.470Z,1.30
2019-03-05T02:58:23.932Z,0.63
2019-03-05T03:00:54.118Z,1.00
2019-03-05T03:03:24.397Z,1.00
2019-03-05T03:05:54.798Z,0.80
2019-03-05T03:08:23.484Z,0.60
2019-03-05T03:10:52.087Z,1.20
2019-03-05T03:13:20.774Z,0.80
2019-03-05T03:15:49.409Z,0.73
2019-03-05T03:18:18.123Z,0.90
2019-03-05T03:20:46.665Z,1.00
2019-03-05T03:23:15.165Z,1.47
2019-03-05T03:25:43.709Z,0.70
2019-03-05T03:28:12.402Z,0.80
2019-03-05T03:30:40.953Z,0.90
2019-03-05T03:33:09.581Z,1.20
2019-03-05T03:35:38.268Z,1.00
2019-03-05T03:38:06.896Z,0.57
2019-03-05T03:40:35.568Z,1.10
2019-03-05T03:43:04.408Z,1.20
2019-03-05T03:45:33.101Z,1.00
2019-03-05T03:48:01.752Z,1.43
2019-03-05T03:50:30.354Z,1.03
2019-03-05T03:52:59.141Z,1.00
2019-03-05T03:55:27.825Z,0.83
2019-03-05T03:57:56.540Z,0.90
2019-03-05T04:00:25.390Z,1.30
2019-03-05T04:02:54.205Z,1.17
2019-03-05T04:05:22.883Z,0.70
2019-03-05T04:07:51.578Z,1.10
2019-03-05T04:10:20.233Z,1.03
2019-03-05T04:12:48.810Z,1.27
2019-03-05T04:15:18.831Z,1.00
2019-03-05T04:17:47.485Z,1.00
2019-03-05T04:20:18.838Z,0.90
2019-03-05T04:22:47.445Z,0.90
2019-03-05T04:25:16.162Z,0.70
2019-03-05T04:27:44.686Z,1.20
2019-03-05T04:30:14.126Z,0.90
2019-03-05T04:32:42.763Z,0.93
2019-03-05T04:35:14.252Z,0.73
2019-03-05T04:37:42.783Z,1.00
2019-03-05T04:40:12.065Z,1.63
2019-03-05T04:42:40.695Z,0.73
2019-03-05T04:45:28.256Z,0.83
2019-03-05T04:47:56.814Z,0.90
2019-03-05T04:50:26.989Z,1.10
2019-03-05T04:52:55.615Z,1.23
2019-03-05T04:55:24.221Z,1.07
2019-03-05T04:57:52.996Z,0.90
2019-03-05T05:00:21.637Z,1.00
2019-03-05T05:02:50.348Z,0.90
2019-03-05T05:05:19.016Z,0.80
2019-03-05T05:07:47.813Z,0.90
2019-03-05T05:10:16.427Z,0.90
2019-03-05T05:12:45.064Z,1.17
2019-03-05T05:15:33.329Z,1.07
2019-03-05T05:18:02.129Z,1.10
2019-03-05T05:20:30.812Z,0.90
2019-03-05T05:22:59.507Z,0.93
2019-03-05T05:25:28.176Z,1.23
2019-03-05T05:27:57.275Z,0.70
2019-03-05T05:30:40.038Z,0.90
2019-03-05T05:33:09.030Z,1.10
2019-03-05T05:35:37.833Z,1.20
2019-03-05T05:38:06.601Z,1.00
2019-03-05T05:40:46.485Z,0.70
2019-03-05T05:43:23.629Z,0.93
2019-03-05T05:45:53.419Z,0.73
2019-03-05T05:48:22.242Z,0.80
2019-03-05T05:51:10.132Z,1.13
2019-03-05T05:53:38.889Z,0.67
2019-03-05T05:56:07.647Z,0.90
2019-03-05T05:58:36.206Z,0.80
2019-03-05T06:01:06.479Z,0.80
2019-03-05T06:03:37.635Z,1.73
2019-03-05T06:06:05.359Z,1.00
2019-03-05T06:08:33.972Z,0.67
2019-03-05T06:11:02.610Z,1.10
2019-03-05T06:13:31.152Z,0.70
2019-03-05T06:15:59.774Z,0.97
2019-03-05T06:18:28.302Z,0.77
2019-03-05T06:20:56.938Z,0.97
2019-03-05T06:23:25.630Z,1.00
2019-03-05T06:25:54.311Z,0.80
2019-03-05T06:28:22.770Z,0.80
2019-03-05T06:30:51.463Z,0.90
2019-03-05T06:33:19.997Z,1.10
2019-03-05T06:35:48.699Z,0.90
2019-03-05T06:38:17.403Z,1.27
2019-03-05T06:40:45.942Z,1.10
2019-03-05T06:43:14.543Z,1.10
2019-03-05T06:45:43.205Z,1.07
2019-03-05T06:48:11.765Z,1.30
2019-03-05T06:50:40.379Z,0.87
2019-03-05T06:53:09.150Z,1.47
2019-03-05T06:55:37.778Z,0.83
2019-03-05T06:58:06.619Z,0.97
2019-03-05T07:00:36.937Z,1.40
2019-03-05T07:03:07.210Z,1.10
2019-03-05T07:06:12.264Z,0.87
2019-03-05T07:08:46.562Z,1.00
2019-03-05T07:11:36.494Z,0.60
2019-03-05T07:14:13.710Z,1.00
2019-03-05T07:17:18.493Z,1.23
2019-03-05T07:19:58.263Z,0.97
2019-03-05T07:22:37.734Z,0.97
2019-03-05T07:25:06.825Z,1.00
2019-03-05T07:27:35.354Z,0.70
2019-03-05T07:30:09.751Z,0.83
2019-03-05T07:32:38.306Z,1.00
2019-03-05T07:35:10.118Z,1.03
2019-03-05T07:37:38.793Z,0.90
2019-03-05T07:40:10.982Z,1.03
2019-03-05T07:42:39.621Z,0.90
2019-03-05T07:45:10.662Z,1.67
2019-03-05T07:47:39.226Z,1.07
2019-03-05T07:50:10.395Z,0.90
2019-03-05T07:52:39.085Z,0.57
2019-03-05T07:55:13.831Z,0.77
2019-03-05T07:57:41.034Z,0.80
2019-03-05T08:00:17.791Z,0.80
2019-03-05T08:02:46.595Z,0.90
2019-03-05T08:05:15.687Z,0.90
2019-03-05T08:07:44.375Z,0.70
2019-03-05T08:10:21.741Z,0.83
2019-03-05T08:13:01.887Z,0.97
2019-03-05T08:15:43.758Z,0.80
2019-03-05T08:18:12.293Z,0.90
2019-03-05T08:20:40.996Z,0.70
2019-03-05T08:23:09.792Z,0.90
2019-03-05T08:25:38.469Z,0.70
2019-03-05T08:28:07.246Z,0.70
2019-03-05T08:30:35.910Z,0.60
2019-03-05T08:33:04.640Z,0.70
2019-03-05T08:35:33.408Z,0.80
2019-03-05T08:38:02.013Z,0.90
2019-03-05T08:40:30.847Z,0.90
2019-03-05T08:42:59.371Z,0.77
2019-03-05T08:45:29.896Z,0.93
2019-03-05T08:47:58.757Z,0.77
2019-03-05T08:50:27.314Z,0.87
2019-03-05T08:52:55.850Z,0.80
2019-03-05T08:55:24.562Z,1.10
2019-03-05T08:57:53.168Z,1.13
2019-03-05T09:00:22.014Z,0.50
2019-03-05T09:02:50.554Z,0.90
2019-03-05T09:05:19.873Z,0.80
2019-03-05T09:07:48.753Z,1.00
2019-03-05T09:10:23.454Z,0.70
2019-03-05T09:12:52.066Z,0.87
2019-03-05T09:15:20.853Z,1.07
2019-03-05T09:17:49.551Z,1.00
2019-03-05T09:20:19.225Z,0.70
2019-03-05T09:22:47.938Z,1.10
2019-03-05T09:25:17.527Z,0.87
2019-03-05T09:27:46.305Z,0.90
2019-03-05T09:30:17.607Z,0.60
2019-03-05T09:32:46.513Z,0.80
2019-03-05T09:35:17.174Z,0.70
2019-03-05T09:37:46.336Z,0.80
2019-03-05T09:40:18.262Z,0.90
2019-03-05T09:42:46.913Z,0.97
2019-03-05T09:45:18.016Z,0.67
2019-03-05T09:47:46.635Z,0.80
2019-03-05T09:50:16.854Z,0.70
2019-03-05T09:52:54.389Z,0.70
2019-03-05T09:55:26.089Z,0.60
2019-03-05T09:58:07.438Z,0.60
2019-03-05T10:00:29.181Z,0.70
2019-03-05T10:02:57.950Z,0.70
2019-03-05T10:05:26.430Z,0.60
2019-03-05T10:07:55.164Z,0.67
2019-03-05T10:10:27.618Z,0.90
2019-03-05T10:12:59.187Z,1.03
2019-03-05T10:15:27.596Z,0.87
2019-03-05T10:17:56.304Z,1.30
2019-03-05T10:20:26.809Z,0.80
2019-03-05T10:22:58.147Z,0.80
2019-03-05T10:25:27.567Z,0.80
2019-03-05T10:27:57.022Z,0.70
2019-03-05T10:30:45.006Z,0.73
2019-03-05T10:33:16.009Z,0.80
2019-03-05T10:35:44.984Z,1.40
2019-03-05T10:38:14.663Z,1.10
2019-03-05T10:40:45.866Z,0.93
2019-03-05T10:43:15.842Z,1.10
2019-03-05T10:45:48.452Z,0.63
2019-03-05T10:48:18.953Z,0.80
2019-03-05T10:50:48.063Z,1.07
2019-03-05T10:53:16.897Z,0.90
2019-03-05T10:55:45.629Z,1.03
2019-03-05T10:58:16.337Z,0.60
2019-03-05T11:00:46.954Z,0.67
2019-03-05T11:03:16.746Z,0.77
2019-03-05T11:05:45.513Z,0.80
2019-03-05T11:08:19.575Z,0.80
2019-03-05T11:10:48.518Z,0.50
2019-03-05T11:13:17.238Z,0.90
2019-03-05T11:15:48.427Z,0.90
2019-03-05T11:18:17.117Z,1.10
2019-03-05T11:20:45.832Z,0.87
2019-03-05T11:23:14.538Z,1.20
2019-03-05T11:25:43.231Z,1.27
2019-03-05T11:28:11.818Z,0.73
2019-03-05T11:30:40.443Z,1.20
2019-03-05T11:33:09.163Z,1.00
2019-03-05T11:35:38.298Z,1.20
2019-03-05T11:38:06.981Z,1.37
2019-03-05T11:40:35.675Z,1.30
2019-03-05T11:43:12.929Z,0.90
2019-03-05T11:45:42.779Z,1.30
2019-03-05T11:48:11.545Z,1.33
2019-03-05T11:50:40.330Z,0.83
2019-03-05T11:53:08.947Z,1.20
2019-03-05T11:55:37.717Z,1.00
2019-03-05T11:58:06.403Z,1.10
2019-03-05T12:00:53.037Z,1.37
2019-03-05T12:03:21.801Z,0.73
2019-03-05T12:05:50.562Z,1.50
2019-03-05T12:08:19.253Z,1.30
2019-03-05T12:10:47.946Z,0.90
2019-03-05T12:13:16.736Z,1.27
2019-03-05T12:15:45.866Z,0.80
2019-03-05T12:18:14.570Z,0.67
2019-03-05T12:20:43.254Z,0.80
2019-03-05T12:23:12.093Z,0.60
2019-03-05T12:25:41.137Z,0.83
2019-03-05T12:28:11.043Z,0.80
2019-03-05T12:30:40.496Z,0.73
2019-03-05T12:33:09.137Z,0.80
2019-03-05T12:35:37.760Z,0.53
2019-03-05T12:38:06.451Z,0.70
2019-03-05T12:40:35.189Z,1.10
2019-03-05T12:43:03.899Z,0.60
2019-03-05T12:45:32.578Z,1.00
2019-03-05T12:48:01.326Z,0.97
2019-03-05T12:50:35.028Z,0.67
2019-03-05T12:53:03.850Z,0.70
2019-03-05T12:55:32.503Z,0.70
2019-03-05T12:58:01.239Z,1.00
2019-03-05T13:00:36.478Z,1.50
2019-03-05T13:03:05.734Z,1.43
2019-03-05T13:05:34.438Z,0.70
2019-03-05T13:08:03.194Z,0.80
2019-03-05T13:10:36.066Z,0.60
2019-03-05T13:13:04.317Z,0.47
2019-03-05T13:15:37.890Z,0.73
2019-03-05T13:18:06.582Z,0.40
2019-03-05T13:20:35.246Z,0.77
2019-03-05T13:23:08.787Z,0.80
2019-03-05T13:25:34.527Z,0.83
2019-03-05T13:28:04.222Z,0.57
2019-03-05T13:30:33.357Z,0.67
2019-03-05T13:33:01.972Z,0.80
2019-03-05T13:35:32.083Z,0.50
2019-03-05T13:38:09.480Z,1.00
2019-03-05T13:40:40.490Z,1.23
2019-03-05T13:43:16.011Z,1.83
2019-03-05T13:45:49.487Z,0.70
2019-03-05T13:48:19.778Z,0.60
2019-03-05T13:51:11.265Z,0.83
2019-03-05T13:53:48.396Z,0.70
2019-03-05T13:56:42.370Z,0.53
2019-03-05T13:59:30.861Z,0.80
2019-03-05T14:01:59.464Z,0.60
2019-03-05T14:04:33.755Z,0.80
2019-03-05T14:07:24.750Z,0.80
2019-03-05T14:09:53.475Z,0.73
2019-03-05T14:12:22.014Z,0.63
2019-03-05T14:14:50.778Z,0.63
2019-03-05T14:17:21.029Z,0.80
2019-03-05T14:19:49.712Z,0.73
2019-03-05T14:22:18.349Z,0.60
2019-03-05T14:24:47.063Z,1.00
2019-03-05T14:27:15.838Z,0.90
2019-03-05T14:29:44.583Z,0.70
2019-03-05T14:32:13.205Z,0.60
2019-03-05T14:34:43.665Z,1.03
2019-03-05T14:37:12.376Z,0.60
2019-03-05T14:39:41.068Z,0.63
2019-03-05T14:42:10.180Z,0.67
2019-03-05T14:44:40.448Z,0.63
2019-03-05T14:47:09.337Z,0.77
2019-03-05T14:49:38.035Z,0.73
2019-03-05T14:52:07.629Z,0.87
2019-03-05T14:54:36.297Z,0.80
2019-03-05T14:57:05.256Z,0.80
2019-03-05T14:59:33.825Z,0.70
2019-03-05T15:02:02.675Z,0.90
2019-03-05T15:04:31.252Z,0.90
2019-03-05T15:06:59.856Z,1.13
2019-03-05T15:09:28.483Z,0.87
2019-03-05T15:11:57.287Z,0.87
2019-03-05T15:14:25.833Z,0.80
2019-03-05T15:16:54.524Z,0.80
2019-03-05T15:19:23.066Z,0.80
2019-03-05T15:21:51.663Z,0.73
2019-03-05T15:24:20.370Z,0.60
2019-03-05T15:26:49.004Z,1.00
2019-03-05T15:29:17.564Z,0.50
2019-03-05T15:31:46.277Z,0.60
2019-03-05T15:34:14.891Z,0.83
2019-03-05T15:36:43.495Z,0.80
2019-03-05T15:39:12.246Z,0.70
2019-03-05T15:41:45.719Z,0.97
2019-03-05T15:44:11.145Z,0.90
2019-03-05T15:46:39.878Z,0.77
2019-03-05T15:49:08.679Z,0.80
2019-03-05T15:51:37.342Z,0.80
2019-03-05T15:54:06.545Z,0.80
2019-03-05T15:56:35.218Z,0.80
2019-03-05T15:59:03.907Z,1.00
2019-03-05T16:01:32.591Z,1.03
2019-03-05T16:04:01.231Z,0.97
2019-03-05T16:06:30.233Z,0.67
2019-03-05T16:09:02.179Z,0.70
2019-03-05T16:11:34.196Z,0.70
2019-03-05T16:14:00.662Z,0.97
2019-03-05T16:16:30.040Z,0.93
2019-03-05T16:18:58.587Z,1.37
2019-03-05T16:21:27.312Z,2.17
2019-03-05T16:23:55.845Z,1.50
2019-03-05T16:26:27.217Z,1.23
2019-03-05T16:28:55.826Z,1.07
2019-03-05T16:31:29.316Z,1.00
2019-03-05T16:34:02.361Z,0.83
2019-03-05T16:36:37.652Z,1.00
2019-03-05T16:39:16.869Z,0.90
2019-03-05T16:41:47.288Z,0.80
2019-03-05T16:44:20.358Z,1.30
2019-03-05T16:46:53.890Z,4.67
2019-03-05T16:49:39.149Z,2.27
2019-03-05T16:52:21.479Z,1.20
2019-03-05T16:54:51.808Z,1.80
2019-03-05T16:57:31.265Z,1.67
2019-03-05T17:00:04.217Z,2.87
2019-03-05T17:02:46.702Z,1.50
2019-03-05T17:05:25.763Z,1.60
2019-03-05T17:07:56.117Z,1.30
2019-03-05T17:10:44.425Z,1.13
2019-03-05T17:13:13.525Z,1.33
2019-03-05T17:15:42.274Z,1.20
2019-03-05T17:18:10.975Z,1.37
2019-03-05T17:20:39.680Z,1.00
2019-03-05T17:23:08.702Z,1.30
2019-03-05T17:25:37.341Z,1.30
2019-03-05T17:28:06.168Z,1.93
2019-03-05T17:30:34.856Z,1.70
2019-03-05T17:33:03.521Z,1.50
2019-03-05T17:35:32.534Z,1.47
2019-03-05T17:38:01.213Z,2.43
2019-03-05T17:40:29.910Z,3.50
2019-03-05T17:42:58.611Z,2.13
2019-03-05T17:45:27.289Z,1.77
2019-03-05T17:47:55.995Z,2.10
2019-03-05T17:50:24.661Z,2.20
2019-03-05T17:52:53.448Z,1.70
2019-03-05T17:55:27.328Z,1.30
2019-03-05T17:57:56.231Z,1.20
2019-03-05T18:00:35.795Z,1.77
2019-03-05T18:03:04.978Z,1.80
2019-03-05T18:05:33.690Z,1.90
2019-03-05T18:08:02.468Z,2.07
2019-03-05T18:10:31.310Z,1.70
2019-03-05T18:12:59.996Z,2.37
2019-03-05T18:15:28.917Z,1.97
2019-03-05T18:17:57.709Z,1.93
2019-03-05T18:20:26.383Z,1.80
2019-03-05T18:22:55.077Z,2.00
2019-03-05T18:25:24.047Z,1.50
2019-03-05T18:27:52.610Z,2.40
2019-03-05T18:30:25.781Z,2.13
2019-03-05T18:32:54.683Z,2.00
2019-03-05T18:35:23.451Z,1.80
2019-03-05T18:37:52.165Z,1.83
2019-03-05T18:40:24.695Z,1.70
2019-03-05T18:42:53.811Z,1.50
2019-03-05T18:45:32.842Z,1.77
2019-03-05T18:48:01.510Z,1.33
2019-03-05T18:50:30.338Z,1.83
2019-03-05T18:52:59.907Z,1.90
2019-03-05T18:55:29.066Z,1.80
2019-03-05T18:57:57.689Z,1.70
2019-03-05T19:00:30.440Z,1.27
2019-03-05T19:03:10.960Z,1.33
2019-03-05T19:05:39.846Z,1.87
2019-03-05T19:08:08.905Z,1.70
2019-03-05T19:10:37.810Z,1.73
2019-03-05T19:13:06.548Z,1.80
2019-03-05T19:15:35.556Z,1.60
2019-03-05T19:18:05.723Z,1.83
2019-03-05T19:20:34.629Z,1.70
2019-03-05T19:23:03.318Z,1.10
2019-03-05T19:25:36.805Z,1.43
2019-03-05T19:28:06.001Z,1.50
2019-03-05T19:30:42.582Z,1.53
2019-03-05T19:33:11.293Z,1.43
2019-03-05T19:35:39.940Z,1.53
2019-03-05T19:38:08.574Z,2.00
2019-03-05T19:40:38.739Z,1.50
2019-03-05T19:43:12.261Z,2.07
2019-03-05T19:45:41.155Z,2.80
2019-03-05T19:48:09.843Z,3.00
2019-03-05T19:50:38.513Z,3.70
2019-03-05T19:53:07.274Z,4.57
2019-03-05T19:55:36.204Z,3.20
2019-03-05T19:58:12.528Z,2.80
2019-03-05T20:01:09.149Z,2.00
2019-03-05T20:03:37.870Z,2.27
2019-03-05T20:06:06.629Z,1.77
2019-03-05T20:08:39.871Z,1.10
2019-03-05T20:11:06.289Z,1.97
2019-03-05T20:13:34.898Z,1.47
2019-03-05T20:16:04.199Z,1.17
2019-03-05T20:18:33.107Z,1.37
2019-03-05T20:21:01.827Z,1.10
2019-03-05T20:23:31.341Z,1.57
2019-03-05T20:26:00.075Z,1.40
2019-03-05T20:28:28.664Z,1.00
2019-03-05T20:30:57.362Z,1.20
2019-03-05T20:33:26.046Z,1.37
2019-03-05T20:35:54.678Z,1.20
2019-03-05T20:38:23.357Z,1.17
2019-03-05T20:40:52.006Z,1.10
2019-03-05T20:43:20.547Z,1.30
2019-03-05T20:45:52.209Z,2.27
2019-03-05T20:48:20.920Z,2.13
2019-03-05T20:50:49.595Z,1.80
2019-03-05T20:53:18.454Z,2.83
2019-03-05T20:55:47.028Z,2.23
2019-03-05T20:58:15.732Z,1.70
2019-03-05T21:00:44.725Z,2.67
2019-03-05T21:03:13.397Z,1.67
2019-03-05T21:05:43.379Z,1.57
2019-03-05T21:08:12.090Z,1.67
2019-03-05T21:10:40.773Z,1.83
2019-03-05T21:13:09.779Z,1.50
2019-03-05T21:15:38.457Z,1.60
2019-03-05T21:18:09.442Z,1.30
2019-03-05T21:20:39.234Z,1.40
2019-03-05T21:23:08.128Z,1.20
2019-03-05T21:25:36.808Z,1.20
2019-03-05T21:28:05.452Z,1.00
2019-03-05T21:30:34.130Z,1.30
2019-03-05T21:33:03.379Z,1.17
2019-03-05T21:35:32.023Z,1.17
2019-03-05T21:38:00.577Z,2.60
2019-03-05T21:40:31.027Z,1.30
2019-03-05T21:42:59.720Z,1.30
2019-03-05T21:45:39.986Z,1.30
2019-03-05T21:48:08.683Z,1.50
2019-03-05T21:50:37.275Z,1.70
2019-03-05T21:53:06.356Z,1.50
2019-03-05T21:55:35.161Z,1.60
2019-03-05T21:58:03.938Z,1.60
2019-03-05T22:00:33.803Z,1.70
2019-03-05T22:03:03.001Z,1.33
2019-03-05T22:05:31.664Z,1.50
2019-03-05T22:08:00.274Z,1.50
2019-03-05T22:10:28.996Z,1.40
2019-03-05T22:12:57.702Z,1.50
2019-03-05T22:15:29.336Z,1.70
2019-03-05T22:17:57.857Z,1.70
2019-03-05T22:20:26.688Z,1.73
2019-03-05T22:22:55.306Z,1.70
2019-03-05T22:25:24.879Z,1.50
2019-03-05T22:27:53.573Z,1.70
2019-03-05T22:30:27.254Z,1.50
2019-03-05T22:32:55.881Z,1.77
2019-03-05T22:35:24.767Z,1.70
2019-03-05T22:37:53.334Z,1.80
2019-03-05T22:40:24.048Z,1.60
2019-03-05T22:42:52.683Z,1.60
2019-03-05T22:45:25.758Z,1.67
2019-03-05T22:47:54.547Z,1.90
2019-03-05T22:50:23.257Z,1.70
2019-03-05T22:52:52.084Z,1.40
2019-03-05T22:55:20.897Z,1.67
2019-03-05T22:57:49.575Z,1.70
2019-03-05T23:00:25.628Z,1.77
2019-03-05T23:02:54.398Z,1.77
2019-03-05T23:05:23.562Z,1.60
2019-03-05T23:07:52.253Z,1.60
2019-03-05T23:10:21.256Z,1.70
2019-03-05T23:12:49.849Z,1.57
2019-03-05T23:15:19.306Z,1.80
2019-03-05T23:17:47.934Z,2.00
2019-03-05T23:20:17.439Z,1.80
2019-03-05T23:22:46.640Z,2.33
2019-03-05T23:25:17.033Z,2.10
2019-03-05T23:27:45.702Z,2.27
2019-03-05T23:30:19.258Z,2.23
2019-03-05T23:32:50.309Z,2.03
2019-03-05T23:35:19.017Z,2.27
2019-03-05T23:37:47.710Z,2.67
2019-03-05T23:40:19.870Z,2.70
2019-03-05T23:42:48.539Z,2.20
2019-03-05T23:45:18.741Z,2.63
2019-03-05T23:47:47.497Z,2.17
2019-03-05T23:50:19.104Z,2.13
2019-03-05T23:52:47.822Z,2.43
2019-03-05T23:55:17.512Z,2.23
2019-03-05T23:57:46.441Z,1.90
